Time;durP1;ratioP1;P1;durP2;ratioP2;P2;SDS_P1;SDS_P2;PMS_P1;PMS_P2;Temp;Humidity;BMP_temperature;BMP_pressure;BME280_temperature;BME280_humidity;BME280_pressure;Samples;Min_cycle;Max_cycle;Signal;HPM_P1;HPM_P2
2022/09/10 00:01:40;;;;;;;1999.90;999.90;;;15.20;99.90;;;;;;5271401;28;20099;-82
2022/09/10 00:04:12;;;;;;;1999.90;999.90;;;15.10;99.90;;;;;;5282488;28;20095;-81
2022/09/10 00:06:43;;;;;;;1999.90;999.90;;;15.10;99.90;;;;;;5278055;28;20034;-88
2022/09/10 00:09:14;;;;;;;1999.90;999.90;;;15.30;99.90;;;;;;5273131;28;20028;-71
2022/09/10 00:11:45;;;;;;;1999.90;999.90;;;15.40;99.90;;;;;;5283996;28;20519;-77
2022/09/10 00:14:19;;;;;;;1999.90;999.90;;;15.50;99.90;;;;;;5256005;28;20051;-83
2022/09/10 00:16:50;;;;;;;1999.90;999.90;;;15.30;99.90;;;;;;5278441;28;20076;-74
2022/09/10 00:19:21;;;;;;;1999.90;999.90;;;15.20;99.90;;;;;;5271767;28;20028;-78
2022/09/10 00:21:52;;;;;;;1999.90;999.90;;;15.10;99.90;;;;;;5283926;28;20028;-81
2022/09/10 00:24:24;;;;;;;1999.90;999.90;;;15.00;99.90;;;;;;5275191;28;20135;-80
2022/09/10 00:26:54;;;;;;;1999.90;999.90;;;15.20;99.90;;;;;;5275993;28;20048;-74
2022/09/10 00:29:25;;;;;;;1999.90;999.90;;;15.10;99.90;;;;;;5283427;28;20031;-72
2022/09/10 00:31:56;;;;;;;1999.90;999.90;;;14.80;99.90;;;;;;5270996;28;20019;-79
2022/09/10 00:34:27;;;;;;;1999.90;999.90;;;15.00;99.90;;;;;;5261374;28;20429;-75
2022/09/10 00:36:58;;;;;;;1999.90;999.90;;;14.90;99.90;;;;;;5271828;28;20035;-71
2022/09/10 00:39:29;;;;;;;1999.90;999.90;;;15.00;99.90;;;;;;5253055;28;20035;-71
2022/09/10 00:41:59;;;;;;;1999.90;999.90;;;15.00;99.90;;;;;;5284464;28;20606;-80
2022/09/10 00:44:39;;;;;;;1999.90;999.90;;;15.20;99.90;;;;;;5260460;28;20081;-77
2022/09/10 00:47:20;;;;;;;1999.90;999.90;;;15.20;99.90;;;;;;5274645;28;20028;-73
2022/09/10 00:50:00;;;;;;;1999.90;999.90;;;15.30;99.90;;;;;;5284194;28;20384;-74
2022/09/10 00:52:33;;;;;;;1999.90;999.90;;;14.90;99.90;;;;;;5276038;28;20374;-73
2022/09/10 00:55:04;;;;;;;1999.90;999.90;;;14.80;99.90;;;;;;5273975;28;20036;-71
2022/09/10 00:57:36;;;;;;;1999.90;999.90;;;14.90;99.90;;;;;;5284541;28;20039;-78
2022/09/10 01:00:10;;;;;;;1999.90;999.90;;;15.10;99.90;;;;;;5276577;28;20471;-79
2022/09/10 01:02:42;;;;;;;1999.90;999.90;;;15.20;99.90;;;;;;5281576;28;20032;-71
2022/09/10 01:05:16;;;;;;;1999.90;999.90;;;15.00;99.90;;;;;;5267122;28;20085;-73
2022/09/10 01:07:47;;;;;;;1999.90;999.90;;;14.80;99.90;;;;;;5274689;28;20061;-76
2022/09/10 01:10:41;;;;;;;1999.90;999.90;;;14.80;99.90;;;;;;5284632;28;20059;-70
2022/09/10 01:13:33;;;;;;;1999.90;999.90;;;14.90;99.90;;;;;;5285433;28;20031;-75
2022/09/10 01:16:31;;;;;;;1999.90;999.90;;;15.00;99.90;;;;;;5267940;28;20038;-76
2022/09/10 01:19:14;;;;;;;1999.90;999.90;;;15.00;99.90;;;;;;5270659;28;20024;-77
2022/09/10 01:22:12;;;;;;;1999.90;999.90;;;15.10;99.90;;;;;;5287354;28;20035;-83
2022/09/10 01:25:02;;;;;;;1999.90;999.90;;;14.70;99.90;;;;;;5262143;28;20032;-77
2022/09/10 01:27:44;;;;;;;1999.90;999.90;;;14.70;99.90;;;;;;5274347;28;20028;-78
2022/09/10 01:30:25;;;;;;;1999.90;999.90;;;14.70;99.90;;;;;;5284876;28;20032;-72
2022/09/10 01:33:00;;;;;;;1999.90;999.90;;;14.70;99.90;;;;;;5282959;28;20034;-77
2022/09/10 01:35:36;;;;;;;1999.90;999.90;;;14.80;99.90;;;;;;5274007;28;20028;-80
2022/09/10 01:38:14;;;;;;;1999.90;999.90;;;14.60;99.90;;;;;;5286637;28;20020;-78
2022/09/10 01:40:45;;;;;;;1999.90;999.90;;;14.80;99.90;;;;;;5263364;28;20023;-76
2022/09/10 01:43:17;;;;;;;1999.90;999.90;;;14.90;99.90;;;;;;5258285;28;20372;-70
2022/09/10 01:46:13;;;;;;;1999.90;999.90;;;14.80;99.90;;;;;;5269789;28;20027;-71
2022/09/10 01:49:05;;;;;;;1999.90;999.90;;;14.90;99.90;;;;;;5223107;28;20036;-74
2022/09/10 01:52:11;;;;;;;1999.90;999.90;;;14.70;99.90;;;;;;5286831;28;20016;-73
2022/09/10 01:55:03;;;;;;;1999.90;999.90;;;14.60;99.90;;;;;;5281115;28;20040;-73
2022/09/10 01:57:59;;;;;;;1999.90;999.90;;;14.40;99.90;;;;;;5274854;28;20036;-78
2022/09/10 02:00:32;;;;;;;1999.90;999.90;;;14.70;99.90;;;;;;5283613;28;20028;-76
2022/09/10 02:03:10;;;;;;;1999.90;999.90;;;14.60;99.90;;;;;;5285164;28;20024;-78
2022/09/10 02:05:44;;;;;;;1999.90;999.90;;;14.70;99.90;;;;;;5276355;28;20091;-81
2022/09/10 02:08:23;;;;;;;1999.90;999.90;;;14.70;99.90;;;;;;5284580;28;20157;-74
2022/09/10 02:10:58;;;;;;;1999.90;999.90;;;14.40;99.90;;;;;;5282273;28;20038;-72
2022/09/10 02:13:29;;;;;;;1999.90;999.90;;;14.10;99.90;;;;;;5255106;28;20092;-71
2022/09/10 02:16:02;;;;;;;1999.90;999.90;;;14.30;99.90;;;;;;5274258;28;20062;-73
2022/09/10 02:18:33;;;;;;;1999.90;999.90;;;14.40;99.90;;;;;;5280356;28;20020;-75
2022/09/10 02:21:05;;;;;;;1999.90;999.90;;;14.20;99.90;;;;;;5282641;28;20352;-75
2022/09/10 02:23:43;;;;;;;1999.90;999.90;;;14.20;99.90;;;;;;5273449;28;20027;-73
2022/09/10 02:26:14;;;;;;;1999.90;999.90;;;14.20;99.90;;;;;;5283538;28;20048;-74
2022/09/10 02:28:48;;;;;;;1999.90;999.90;;;14.50;99.90;;;;;;5280906;28;20027;-73
2022/09/10 02:31:19;;;;;;;1999.90;999.90;;;14.10;99.90;;;;;;5274042;28;20016;-74
2022/09/10 02:33:50;;;;;;;1999.90;999.90;;;14.20;99.90;;;;;;5267062;28;20543;-72
2022/09/10 02:36:24;;;;;;;1999.90;999.90;;;14.30;99.90;;;;;;5258806;28;20395;-73
2022/09/10 02:38:55;;;;;;;1999.90;999.90;;;14.60;99.90;;;;;;5278802;28;20364;-82
2022/09/10 02:41:26;;;;;;;1999.90;999.90;;;14.50;99.90;;;;;;5285969;28;20027;-80
2022/09/10 02:43:57;;;;;;;1999.90;999.90;;;14.40;99.90;;;;;;5268838;28;20030;-83
2022/09/10 02:46:28;;;;;;;1999.90;999.90;;;14.10;99.90;;;;;;5279508;28;20355;-81
2022/09/10 02:48:59;;;;;;;1999.90;999.90;;;14.30;99.90;;;;;;5284292;28;20023;-75
2022/09/10 02:51:30;;;;;;;1999.90;999.90;;;14.20;99.90;;;;;;5255035;28;20403;-70
2022/09/10 02:54:02;;;;;;;1999.90;999.90;;;14.50;99.90;;;;;;5274400;28;20519;-77
2022/09/10 02:56:33;;;;;;;1999.90;999.90;;;14.10;99.90;;;;;;5280997;28;20039;-80
2022/09/10 02:59:04;;;;;;;1999.90;999.90;;;14.00;99.90;;;;;;5282624;28;20024;-78
2022/09/10 03:01:35;;;;;;;1999.90;999.90;;;14.10;99.90;;;;;;5272660;28;20023;-75
2022/09/10 03:04:06;;;;;;;1999.90;999.90;;;14.00;99.90;;;;;;5283737;28;20016;-78
2022/09/10 03:06:37;;;;;;;1999.90;999.90;;;13.80;99.90;;;;;;5277874;28;20776;-77
2022/09/10 03:09:08;;;;;;;1999.90;999.90;;;14.10;99.90;;;;;;5275173;28;20052;-78
2022/09/10 03:11:40;;;;;;;1999.90;999.90;;;14.20;99.90;;;;;;5285203;28;20031;-78
2022/09/10 03:14:15;;;;;;;1999.90;999.90;;;13.90;99.90;;;;;;5256837;28;20486;-77
2022/09/10 03:16:46;;;;;;;1999.90;999.90;;;13.70;99.90;;;;;;5278874;28;20036;-72
2022/09/10 03:19:17;;;;;;;1999.90;999.90;;;13.90;99.90;;;;;;5284054;28;20596;-78
2022/09/10 03:21:48;;;;;;;1999.90;999.90;;;14.00;99.90;;;;;;5268756;28;20107;-80
2022/09/10 03:24:19;;;;;;;1999.90;999.90;;;14.00;99.90;;;;;;5264133;28;20035;-73
2022/09/10 03:26:50;;;;;;;1999.90;999.90;;;14.30;99.90;;;;;;5280769;28;20043;-81
2022/09/10 03:29:22;;;;;;;1999.90;999.90;;;14.30;99.90;;;;;;5274831;28;20061;-78
2022/09/10 03:31:53;;;;;;;1999.90;999.90;;;14.30;99.90;;;;;;5286706;28;20091;-84
2022/09/10 03:34:24;;;;;;;1999.90;999.90;;;13.70;99.90;;;;;;5277106;28;20051;-78
2022/09/10 03:36:55;;;;;;;1999.90;999.90;;;13.80;99.90;;;;;;5277943;28;20068;-77
2022/09/10 03:39:25;;;;;;;1999.90;999.90;;;14.00;99.90;;;;;;5287012;28;20032;-84
2022/09/10 03:41:57;;;;;;;1999.90;999.90;;;13.90;99.90;;;;;;5276072;28;20027;-86
2022/09/10 03:44:28;;;;;;;1999.90;999.90;;;14.10;99.90;;;;;;5285820;28;20020;-72
2022/09/10 03:47:02;;;;;;;1999.90;999.90;;;14.20;99.90;;;;;;5285971;28;20023;-75
2022/09/10 03:49:32;;;;;;;1999.90;999.90;;;14.10;99.90;;;;;;5275207;28;20490;-72
2022/09/10 03:52:03;;;;;;;1999.90;999.90;;;13.90;99.90;;;;;;5266856;28;20020;-70
2022/09/10 03:54:36;;;;;;;1999.90;999.90;;;13.90;99.90;;;;;;5277650;28;20106;-74
2022/09/10 03:57:07;;;;;;;1999.90;999.90;;;14.00;99.90;;;;;;5276127;28;20367;-72
2022/09/10 03:59:40;;;;;;;1999.90;999.90;;;13.90;99.90;;;;;;5286839;28;20125;-72
2022/09/10 04:02:10;;;;;;;1999.90;999.90;;;14.10;99.90;;;;;;5274915;28;20107;-84
2022/09/10 04:04:41;;;;;;;1999.90;999.90;;;14.10;99.90;;;;;;5259942;28;20111;-82
2022/09/10 04:07:12;;;;;;;1999.90;999.90;;;14.20;99.90;;;;;;5282129;28;20027;-77
2022/09/10 04:09:43;;;;;;;1999.90;999.90;;;14.00;99.90;;;;;;5266327;28;20666;-78
2022/09/10 04:12:14;;;;;;;1999.90;999.90;;;14.00;99.90;;;;;;5281389;28;20040;-71
2022/09/10 04:14:45;;;;;;;1999.90;999.90;;;14.40;99.90;;;;;;5277875;28;20035;-83
2022/09/10 04:17:16;;;;;;;1999.90;999.90;;;14.50;99.90;;;;;;5277930;28;20119;-74
2022/09/10 04:19:47;;;;;;;1999.90;999.90;;;13.90;99.90;;;;;;5271064;28;20035;-74
2022/09/10 04:22:18;;;;;;;1999.90;999.90;;;13.90;99.90;;;;;;5280380;28;20032;-75
2022/09/10 04:24:49;;;;;;;1999.90;999.90;;;14.00;99.90;;;;;;5278320;28;20038;-73
2022/09/10 04:27:20;;;;;;;1999.90;999.90;;;14.30;99.90;;;;;;5272116;28;20040;-73
2022/09/10 04:29:52;;;;;;;1999.90;999.90;;;14.40;99.90;;;;;;5283811;28;20016;-83
2022/09/10 04:32:22;;;;;;;1999.90;999.90;;;14.30;99.90;;;;;;5277327;28;20020;-71
2022/09/10 04:34:53;;;;;;;1999.90;999.90;;;14.50;99.90;;;;;;5261918;28;20105;-75
2022/09/10 04:37:24;;;;;;;1999.90;999.90;;;14.50;99.90;;;;;;5269065;28;20055;-72
2022/09/10 04:39:56;;;;;;;1999.90;999.90;;;14.70;99.90;;;;;;5275045;28;20105;-70
2022/09/10 04:42:27;;;;;;;1999.90;999.90;;;14.60;99.90;;;;;;5282704;28;20449;-73
2022/09/10 04:44:58;;;;;;;1999.90;999.90;;;14.80;99.90;;;;;;5265319;28;20028;-79
2022/09/10 04:47:28;;;;;;;1999.90;999.90;;;14.80;99.90;;;;;;5281229;28;20081;-76
2022/09/10 04:50:00;;;;;;;1999.90;999.90;;;14.90;99.90;;;;;;5275610;28;20027;-76
2022/09/10 04:52:31;;;;;;;1999.90;999.90;;;15.10;99.90;;;;;;5283466;28;20115;-72
2022/09/10 04:55:01;;;;;;;1999.90;999.90;;;15.30;99.90;;;;;;5284411;28;20107;-71
2022/09/10 04:57:32;;;;;;;1999.90;999.90;;;15.10;99.90;;;;;;5267086;28;20040;-75
2022/09/10 05:00:06;;;;;;;1999.90;999.90;;;15.10;99.90;;;;;;5277908;28;20502;-78
2022/09/10 05:02:37;;;;;;;1999.90;999.90;;;15.10;99.90;;;;;;5271764;28;20118;-77
2022/09/10 05:05:08;;;;;;;1999.90;999.90;;;15.30;99.90;;;;;;5269960;28;20020;-71
2022/09/10 05:07:39;;;;;;;1999.90;999.90;;;15.60;99.90;;;;;;5274423;28;20027;-73
2022/09/10 05:10:10;;;;;;;1999.90;999.90;;;15.70;99.90;;;;;;5272139;28;20042;-73
2022/09/10 05:12:41;;;;;;;1999.90;999.90;;;15.70;99.90;;;;;;5271405;28;20024;-73
2022/09/10 05:15:11;;;;;;;1999.90;999.90;;;15.80;99.90;;;;;;5269871;28;20103;-71
2022/09/10 05:17:42;;;;;;;1999.90;999.90;;;16.10;99.90;;;;;;5278372;28;20031;-77
2022/09/10 05:20:13;;;;;;;1999.90;999.90;;;16.00;99.90;;;;;;5271085;28;20361;-79
2022/09/10 05:22:44;;;;;;;1999.90;999.90;;;16.00;99.90;;;;;;5272939;28;20035;-75
2022/09/10 05:25:15;;;;;;;1999.90;999.90;;;16.20;99.90;;;;;;5263473;28;20923;-74
2022/09/10 05:27:47;;;;;;;1999.90;999.90;;;16.30;99.90;;;;;;5271690;28;20371;-76
2022/09/10 05:30:17;;;;;;;1999.90;999.90;;;16.50;99.90;;;;;;5269650;28;20016;-73
2022/09/10 05:32:51;;;;;;;1999.90;999.90;;;16.70;99.90;;;;;;5269115;28;20130;-78
2022/09/10 05:35:22;;;;;;;1999.90;999.90;;;16.70;99.90;;;;;;5271591;28;20051;-79
2022/09/10 05:37:56;;;;;;;1999.90;999.90;;;16.90;99.90;;;;;;5254540;28;20024;-79
2022/09/10 05:40:28;;;;;;;1999.90;999.90;;;17.20;99.90;;;;;;5271127;28;20483;-74
2022/09/10 05:42:59;;;;;;;1999.90;999.90;;;17.40;99.90;;;;;;5252192;28;20028;-79
2022/09/10 05:45:29;;;;;;;1999.90;999.90;;;17.60;99.90;;;;;;5255309;28;20059;-81
2022/09/10 05:48:02;;;;;;;1999.90;999.90;;;17.60;99.90;;;;;;5272162;28;20043;-71
2022/09/10 05:50:33;;;;;;;1999.90;999.90;;;18.00;99.90;;;;;;5273191;28;20032;-74
2022/09/10 05:53:04;;;;;;;1999.90;999.90;;;18.30;99.90;;;;;;5258661;28;20490;-71
2022/09/10 05:55:34;;;;;;;1999.90;999.90;;;18.20;99.90;;;;;;5268725;28;20493;-83
2022/09/10 05:58:05;;;;;;;1999.90;999.90;;;18.40;99.90;;;;;;5268808;28;20064;-75
2022/09/10 06:00:36;;;;;;;1999.90;999.90;;;18.40;99.90;;;;;;5272456;28;20024;-86
2022/09/10 06:03:07;;;;;;;1999.90;999.90;;;18.60;99.90;;;;;;5279201;28;20551;-83
2022/09/10 06:05:37;;;;;;;1999.90;999.90;;;19.00;99.90;;;;;;5284941;28;20036;-84
2022/09/10 06:08:08;;;;;;;1999.90;999.90;;;19.30;99.90;;;;;;5283004;28;20095;-88
2022/09/10 06:10:39;;;;;;;1999.90;999.90;;;19.40;99.90;;;;;;5274717;28;20085;-83
2022/09/10 06:13:10;;;;;;;1999.90;999.90;;;19.60;99.90;;;;;;5277865;28;20062;-82
2022/09/10 06:15:41;;;;;;;1999.90;999.90;;;19.80;99.90;;;;;;5263299;28;20051;-87
2022/09/10 06:18:12;;;;;;;1999.90;999.90;;;20.00;99.90;;;;;;5269679;28;20020;-88
2022/09/10 06:20:43;;;;;;;1999.90;999.90;;;20.00;99.90;;;;;;5271975;28;20363;-83
2022/09/10 06:23:17;;;;;;;1999.90;999.90;;;20.50;99.90;;;;;;5271333;28;20024;-79
2022/09/10 06:25:58;;;;;;;1999.90;999.90;;;20.60;99.90;;;;;;5270884;28;20075;-84
2022/09/10 06:28:31;;;;;;;1999.90;999.90;;;20.80;99.90;;;;;;5269513;28;20020;-75
2022/09/10 06:31:03;;;;;;;1999.90;999.90;;;21.00;99.90;;;;;;5269530;28;20027;-76
2022/09/10 06:33:34;;;;;;;1999.90;999.90;;;21.20;99.90;;;;;;5272131;28;20028;-75
2022/09/10 06:36:05;;;;;;;1999.90;999.90;;;21.40;99.90;;;;;;5265899;28;20053;-77
2022/09/10 06:38:36;;;;;;;1999.90;999.90;;;21.60;99.90;;;;;;5271695;28;20093;-78
2022/09/10 06:41:12;;;;;;;1999.90;999.90;;;22.10;99.90;;;;;;5256868;28;20078;-76
2022/09/10 06:43:43;;;;;;;1999.90;999.90;;;22.20;99.90;;;;;;5271687;28;20023;-84
2022/09/10 06:46:16;;;;;;;1999.90;999.90;;;22.40;99.90;;;;;;5254625;28;20029;-75
2022/09/10 06:48:47;;;;;;;1999.90;999.90;;;22.50;99.90;;;;;;5248594;28;20069;-74
2022/09/10 06:51:18;;;;;;;1999.90;999.90;;;22.90;99.90;;;;;;5267700;28;20085;-76
2022/09/10 06:53:49;;;;;;;1999.90;999.90;;;22.90;99.90;;;;;;5268225;28;20062;-79
2022/09/10 06:56:20;;;;;;;1999.90;999.90;;;22.90;99.90;;;;;;5266460;28;20077;-72
2022/09/10 06:58:50;;;;;;;1999.90;999.90;;;23.00;99.90;;;;;;5269301;28;20020;-86
2022/09/10 07:01:22;;;;;;;1999.90;999.90;;;23.10;99.90;;;;;;5268390;28;20016;-74
2022/09/10 07:03:58;;;;;;;1999.90;999.90;;;23.30;99.90;;;;;;5267656;28;20020;-76
2022/09/10 07:06:33;;;;;;;1999.90;999.90;;;23.60;99.90;;;;;;5264673;28;20028;-80
2022/09/10 07:09:04;;;;;;;1999.90;999.90;;;23.60;99.90;;;;;;5268758;28;20020;-71
2022/09/10 07:11:35;;;;;;;1999.90;999.90;;;23.90;99.90;;;;;;5269129;28;20028;-73
2022/09/10 07:14:06;;;;;;;1999.90;999.90;;;23.90;99.90;;;;;;5255444;28;20528;-74
2022/09/10 07:16:40;;;;;;;1999.90;999.90;;;24.20;99.90;;;;;;5265499;28;20496;-73
2022/09/10 07:19:16;;;;;;;1999.90;999.90;;;24.30;99.90;;;;;;5265296;28;20058;-77
2022/09/10 07:21:47;;;;;;;1999.90;999.90;;;24.60;99.90;;;;;;5265989;28;20027;-74
2022/09/10 07:24:21;;;;;;;1999.90;999.90;;;24.70;99.90;;;;;;5267975;28;20026;-79
2022/09/10 07:26:59;;;;;;;1999.90;999.90;;;24.70;99.90;;;;;;5269397;28;20048;-80
2022/09/10 07:29:34;;;;;;;1999.90;999.90;;;24.80;99.90;;;;;;5254523;28;20020;-77
2022/09/10 07:32:11;;;;;;;1999.90;999.90;;;24.70;99.90;;;;;;5264296;28;20035;-78
2022/09/10 07:34:46;;;;;;;1999.90;999.90;;;25.10;99.90;;;;;;5264920;28;20020;-78
2022/09/10 07:37:18;;;;;;;1999.90;999.90;;;25.10;99.90;;;;;;5265628;28;20118;-76
2022/09/10 07:39:49;;;;;;;1999.90;999.90;;;25.20;99.90;;;;;;5271690;28;20024;-74
2022/09/10 07:42:20;;;;;;;1999.90;999.90;;;25.70;99.90;;;;;;5266911;28;20093;-73
2022/09/10 07:44:51;;;;;;;1999.90;999.90;;;25.60;99.90;;;;;;5265732;28;20103;-76
2022/09/10 07:47:24;;;;;;;1999.90;999.90;;;25.80;99.90;;;;;;5268166;28;20055;-75
2022/09/10 07:49:55;;;;;;;1999.90;999.90;;;25.90;99.90;;;;;;5266824;28;20020;-74
2022/09/10 07:52:26;;;;;;;1999.90;999.90;;;25.60;99.90;;;;;;5265843;28;20031;-74
2022/09/10 07:54:57;;;;;;;1999.90;999.90;;;25.90;99.90;;;;;;5269672;28;20036;-74
2022/09/10 07:57:30;;;;;;;1999.90;999.90;;;25.80;99.90;;;;;;5266038;28;20032;-71
2022/09/10 08:00:02;;;;;;;1999.90;999.90;;;26.00;99.90;;;;;;5247522;28;20404;-73
2022/09/10 08:02:33;;;;;;;1999.90;999.90;;;26.00;99.90;;;;;;5265466;28;20085;-75
2022/09/10 08:05:04;;;;;;;1999.90;999.90;;;26.10;99.90;;;;;;5254461;28;20886;-75
2022/09/10 08:07:39;;;;;;;1999.90;999.90;;;26.10;99.90;;;;;;5268497;28;20422;-75
2022/09/10 08:10:12;;;;;;;1999.90;999.90;;;26.30;99.90;;;;;;5267859;28;20044;-77
2022/09/10 08:12:43;;;;;;;1999.90;999.90;;;26.50;99.90;;;;;;5268133;28;20098;-75
2022/09/10 08:15:13;;;;;;;1999.90;999.90;;;26.50;99.90;;;;;;5267479;28;20023;-75
2022/09/10 08:17:44;;;;;;;1999.90;999.90;;;26.40;99.90;;;;;;5266704;28;20055;-73
2022/09/10 08:20:15;;;;;;;1999.90;999.90;;;26.90;99.90;;;;;;5265122;28;20020;-75
2022/09/10 08:22:48;;;;;;;1999.90;999.90;;;26.80;99.90;;;;;;5268899;28;20039;-74
2022/09/10 08:25:20;;;;;;;1999.90;999.90;;;26.70;99.90;;;;;;5265707;28;20098;-76
2022/09/10 08:27:53;;;;;;;1999.90;999.90;;;27.00;99.90;;;;;;5270719;28;20362;-75
2022/09/10 08:30:24;;;;;;;1999.90;999.90;;;27.00;99.90;;;;;;5251655;28;20690;-73
2022/09/10 08:32:55;;;;;;;1999.90;999.90;;;27.40;99.90;;;;;;5266808;28;20024;-76
2022/09/10 08:35:26;;;;;;;1999.90;999.90;;;27.60;99.90;;;;;;5268036;28;20460;-74
2022/09/10 08:37:57;;;;;;;1999.90;999.90;;;27.50;99.90;;;;;;5244180;28;20028;-75
2022/09/10 08:40:28;;;;;;;1999.90;999.90;;;27.50;99.90;;;;;;5259353;28;20027;-75
2022/09/10 08:43:00;;;;;;;1999.90;999.90;;;27.30;99.90;;;;;;5255370;28;20035;-75
2022/09/10 08:45:32;;;;;;;1999.90;999.90;;;27.50;99.90;;;;;;5266139;28;20012;-78
2022/09/10 08:48:16;;;;;;;1999.90;999.90;;;27.60;99.90;;;;;;5268811;28;20039;-76
2022/09/10 08:51:01;;;;;;;1999.90;999.90;;;27.80;99.90;;;;;;5269684;28;20032;-75
2022/09/10 08:53:55;;;;;;;1999.90;999.90;;;28.10;99.90;;;;;;5267248;28;20039;-72
2022/09/10 08:56:27;;;;;;;1999.90;999.90;;;28.10;99.90;;;;;;5266045;28;20056;-74
2022/09/10 08:59:08;;;;;;;1999.90;999.90;;;28.20;99.90;;;;;;5265429;28;20028;-75
2022/09/10 09:02:19;;;;;;;1999.90;999.90;;;28.30;99.90;;;;;;5267064;28;20020;-74
2022/09/10 09:04:55;;;;;;;1999.90;999.90;;;28.70;99.90;;;;;;5264744;28;20111;-74
2022/09/10 09:07:36;;;;;;;1999.90;999.90;;;28.50;99.90;;;;;;5264938;28;20020;-77
2022/09/10 09:10:31;;;;;;;1999.90;999.90;;;28.70;99.90;;;;;;5261071;28;20031;-76
2022/09/10 09:13:27;;;;;;;1999.90;999.90;;;28.80;99.90;;;;;;5262705;28;20031;-74
2022/09/10 09:16:30;;;;;;;1999.90;999.90;;;28.80;99.90;;;;;;5253305;28;20484;-73
2022/09/10 09:19:27;;;;;;;1999.90;999.90;;;28.50;99.90;;;;;;5261244;28;20532;-76
2022/09/10 09:22:18;;;;;;;1999.90;999.90;;;28.50;99.90;;;;;;5250952;28;20028;-74
2022/09/10 09:25:08;;;;;;;1999.90;999.90;;;29.00;99.90;;;;;;5265273;28;20505;-75
2022/09/10 09:27:42;;;;;;;1999.90;999.90;;;29.20;99.90;;;;;;5264005;28;20044;-74
2022/09/10 09:30:21;;;;;;;1999.90;999.90;;;29.30;99.90;;;;;;5253044;28;20123;-79
2022/09/10 09:32:56;;;;;;;1999.90;999.90;;;29.50;99.90;;;;;;5255904;28;20177;-77
2022/09/10 09:35:42;;;;;;;1999.90;999.90;;;29.80;99.90;;;;;;5252608;28;20048;-77
2022/09/10 09:38:23;;;;;;;1999.90;999.90;;;29.20;99.90;;;;;;5264920;28;20368;-78
2022/09/10 09:41:07;;;;;;;1999.90;999.90;;;28.70;99.90;;;;;;5266407;28;20028;-76
2022/09/10 09:43:51;;;;;;;1999.90;999.90;;;29.30;99.90;;;;;;5265388;28;20085;-77
2022/09/10 09:46:23;;;;;;;1999.90;999.90;;;28.90;99.90;;;;;;5266332;28;20028;-78
2022/09/10 09:48:59;;;;;;;1999.90;999.90;;;29.00;99.90;;;;;;5266669;28;20031;-77
2022/09/10 09:51:34;;;;;;;1999.90;999.90;;;29.10;99.90;;;;;;5266704;28;20028;-76
2022/09/10 09:54:08;;;;;;;1999.90;999.90;;;29.20;99.90;;;;;;5250921;28;20020;-76
2022/09/10 09:56:44;;;;;;;1999.90;999.90;;;29.90;99.90;;;;;;5260123;28;20495;-77
2022/09/10 09:59:33;;;;;;;1999.90;999.90;;;30.00;99.90;;;;;;5264799;28;20024;-75
2022/09/10 10:02:14;;;;;;;1999.90;999.90;;;30.20;99.90;;;;;;5265981;28;20012;-75
2022/09/10 10:05:06;;;;;;;1999.90;999.90;;;30.40;99.90;;;;;;5265975;28;20039;-74
2022/09/10 10:07:37;;;;;;;1999.90;999.90;;;30.00;99.90;;;;;;5263229;28;20116;-76
2022/09/10 10:10:25;;;;;;;1999.90;999.90;;;29.50;99.90;;;;;;5265975;28;20032;-76
2022/09/10 10:12:56;;;;;;;1999.90;999.90;;;29.70;99.90;;;;;;5266272;28;20745;-72
2022/09/10 10:15:43;;;;;;;1999.90;999.90;;;30.10;99.90;;;;;;5266399;28;20036;-73
2022/09/10 10:18:23;;;;;;;1999.90;999.90;;;30.50;99.90;;;;;;5266010;28;20024;-75
2022/09/10 10:21:21;;;;;;;1999.90;999.90;;;30.60;99.90;;;;;;5266064;28;20035;-72
2022/09/10 10:23:51;;;;;;;1999.90;999.90;;;30.70;99.90;;;;;;5265486;28;20039;-75
2022/09/10 10:26:31;;;;;;;1999.90;999.90;;;30.60;99.90;;;;;;5265507;28;20056;-73
2022/09/10 10:29:19;;;;;;;1999.90;999.90;;;31.20;99.90;;;;;;5265983;28;20024;-75
2022/09/10 10:31:52;;;;;;;1999.90;999.90;;;31.10;99.90;;;;;;5266168;28;20024;-78
2022/09/10 10:35:01;;;;;;;1999.90;999.90;;;30.10;99.90;;;;;;5266058;28;20020;-77
2022/09/10 10:37:59;;;;;;;1999.90;999.90;;;30.00;99.90;;;;;;5247277;28;20044;-76
2022/09/10 10:40:42;;;;;;;1999.90;999.90;;;30.60;99.90;;;;;;5265937;28;20456;-76
2022/09/10 10:43:22;;;;;;;1999.90;999.90;;;30.10;99.90;;;;;;5247090;28;20028;-74
2022/09/10 10:46:04;;;;;;;1999.90;999.90;;;30.70;99.70;;;;;;5266210;28;20055;-72
2022/09/10 10:48:54;;;;;;;1999.90;999.90;;;31.30;99.90;;;;;;5266145;28;20051;-73
2022/09/10 10:51:51;;;;;;;1999.90;999.90;;;31.10;99.90;;;;;;5247273;28;20475;-73
2022/09/10 10:54:54;;;;;;;1999.90;999.90;;;31.30;99.90;;;;;;5265143;28;20093;-72
2022/09/10 10:57:49;;;;;;;1999.90;999.90;;;31.50;99.90;;;;;;5209906;28;20070;-75
2022/09/10 11:00:20;;;;;;;1999.90;999.90;;;31.90;99.90;;;;;;5248450;28;20032;-74
2022/09/10 11:03:01;;;;;;;1999.90;999.90;;;32.10;99.90;;;;;;5265646;28;20027;-74
2022/09/10 11:05:43;;;;;;;1999.90;999.90;;;30.00;99.90;;;;;;5246626;28;20063;-73
2022/09/10 11:08:26;;;;;;;1999.90;999.90;;;31.00;99.90;;;;;;5265228;28;20134;-72
2022/09/10 11:11:45;;;;;;;1999.90;999.90;;;31.80;99.90;;;;;;5264907;28;20024;-73
2022/09/10 11:14:23;;;;;;;1999.90;999.90;;;32.00;99.90;;;;;;5237468;28;20047;-71
2022/09/10 11:17:02;;;;;;;1999.90;999.90;;;31.50;99.90;;;;;;5264685;28;20044;-72
2022/09/10 11:19:37;;;;;;;;;;;31.60;99.90;;;;;;5247113;28;20049;-72
2022/09/10 11:22:26;;;;;;;1999.90;999.90;;;31.60;99.90;;;;;;5265225;28;19904;-74
2022/09/10 11:25:07;;;;;;;1999.90;999.90;;;31.80;99.90;;;;;;5264420;28;20036;-72
2022/09/10 11:27:45;;;;;;;1999.90;999.90;;;31.60;99.90;;;;;;5263941;28;20104;-73
2022/09/10 11:30:16;;;;;;;1999.90;999.90;;;31.80;99.90;;;;;;5265015;28;20093;-71
2022/09/10 11:32:50;;;;;;;1999.90;999.90;;;31.70;99.90;;;;;;5258950;28;20035;-73
2022/09/10 11:35:28;;;;;;;1999.90;999.90;;;31.80;99.90;;;;;;5264771;28;20028;-71
2022/09/10 11:38:10;;;;;;;1999.90;999.90;;;31.90;99.90;;;;;;5246316;28;20032;-73
2022/09/10 11:40:45;;;;;;;1999.90;999.90;;;31.70;99.90;;;;;;5264554;28;20375;-72
2022/09/10 11:43:32;;;;;;;1999.90;999.90;;;31.20;99.90;;;;;;5264443;28;20081;-71
2022/09/10 11:46:28;;;;;;;1999.90;999.90;;;31.20;99.90;;;;;;5263849;28;20020;-74
2022/09/10 11:49:09;;;;;;;1999.90;999.90;;;31.00;99.90;;;;;;5264613;28;20027;-74
2022/09/10 11:51:41;;;;;;;1999.90;999.90;;;31.90;99.90;;;;;;5244182;28;20028;-72
2022/09/10 11:54:27;;;;;;;1999.90;999.90;;;32.00;99.90;;;;;;5262338;28;20032;-72
2022/09/10 11:57:34;;;;;;;1999.90;999.90;;;31.50;99.90;;;;;;5257748;28;20063;-73
2022/09/10 12:00:11;;;;;;;1999.90;999.90;;;31.70;99.90;;;;;;5250190;28;20036;-73
2022/09/10 12:03:22;;;;;;;1999.90;999.90;;;31.70;99.90;;;;;;5263929;28;20058;-72
2022/09/10 12:06:05;;;;;;;1999.90;999.90;;;31.50;99.90;;;;;;5262584;28;20020;-73
2022/09/10 12:09:01;;;;;;;1999.90;999.90;;;31.60;99.90;;;;;;5262856;28;20020;-74
2022/09/10 12:12:20;;;;;;;1999.90;999.90;;;31.60;99.90;;;;;;5260953;28;20360;-73
2022/09/10 12:14:51;;;;;;;1999.90;999.90;;;31.40;99.90;;;;;;5239572;28;20032;-72
2022/09/10 12:17:33;;;;;;;1999.90;999.90;;;31.70;99.90;;;;;;5257024;28;20991;-74
2022/09/10 12:20:05;;;;;;;1999.90;999.90;;;31.70;99.90;;;;;;5282311;27;20028;-73
2022/09/10 12:22:40;;;;;;;1999.90;999.90;;;31.90;99.90;;;;;;5262401;28;20423;-72
2022/09/10 12:25:14;;;;;;;1999.90;999.90;;;31.80;99.90;;;;;;5262646;28;20035;-72
2022/09/10 12:27:51;;;;;;;1999.90;999.90;;;31.50;99.90;;;;;;5263080;28;20149;-70
2022/09/10 12:30:32;;;;;;;1999.90;999.90;;;31.70;99.90;;;;;;5262843;28;20488;-72
2022/09/10 12:33:12;;;;;;;1999.90;999.90;;;31.60;99.90;;;;;;5245190;28;20534;-70
2022/09/10 12:35:46;;;;;;;1999.90;999.90;;;31.70;99.90;;;;;;5261594;28;20116;-72
2022/09/10 12:38:54;;;;;;;1999.90;999.90;;;31.50;99.90;;;;;;5261835;28;20097;-71
2022/09/10 12:41:26;;;;;;;1999.90;999.90;;;31.50;99.90;;;;;;5262436;28;20039;-75
2022/09/10 12:43:58;;;;;;;1999.90;999.90;;;31.60;99.90;;;;;;5263474;28;20100;-72